Brisbane, North Dakota
Current Conditions -  °F | °C
As of 3:15 PM on Saturday 25 Oct 2014 (Local Time) from KD57 Reporting Station
Clear Clear  
Wind Chill: 64°   Ceiling: Unl
Heat Index: 64°   Visibility: 10mi
Dew Point: 27°   Wind: 12mph
Humidity: 24%   Direction: 160°SSE
Pressure: 30.03"   Gusts: NA
Location:  46.3453°N, 101.479°W
Report Text: KD57 252115Z AUTO 16010KT 10SM CLR 18/M03 A3003 RMK AO2 TSNO
Loading
Personal Weather Stations






























Interactive Weather Map
Tropical Storm Tracking
New forecast layout! Learn more

10-Day Weather Forecast

Advertisements
Track Severe Weather on mobile